sensor_id;sensor_type;location;lat;lon;timestamp;P1;durP1;ratioP1;P2;durP2;ratioP2
26536;SDS011;14204;51.262;5.488;2023-07-22T00:01:23;16.50;;;9.98;;
26536;SDS011;14204;51.262;5.488;2023-07-22T00:03:48;13.13;;;10.73;;
26536;SDS011;14204;51.262;5.488;2023-07-22T00:06:14;14.32;;;11.13;;
26536;SDS011;14204;51.262;5.488;2023-07-22T00:08:40;16.13;;;11.13;;
26536;SDS011;14204;51.262;5.488;2023-07-22T00:11:06;15.13;;;11.05;;
26536;SDS011;14204;51.262;5.488;2023-07-22T00:13:32;15.98;;;12.10;;
26536;SDS011;14204;51.262;5.488;2023-07-22T00:15:59;15.38;;;11.43;;
26536;SDS011;14204;51.262;5.488;2023-07-22T00:18:25;13.88;;;11.30;;
26536;SDS011;14204;51.262;5.488;2023-07-22T00:20:54;12.93;;;11.05;;
26536;SDS011;14204;51.262;5.488;2023-07-22T00:23:20;14.77;;;10.75;;
26536;SDS011;14204;51.262;5.488;2023-07-22T00:25:46;17.15;;;11.35;;
26536;SDS011;14204;51.262;5.488;2023-07-22T00:28:12;14.35;;;11.25;;
26536;SDS011;14204;51.262;5.488;2023-07-22T00:30:38;12.98;;;10.07;;
26536;SDS011;14204;51.262;5.488;2023-07-22T00:33:04;14.45;;;10.15;;
26536;SDS011;14204;51.262;5.488;2023-07-22T00:35:30;15.38;;;10.80;;
26536;SDS011;14204;51.262;5.488;2023-07-22T00:37:57;16.70;;;10.95;;
26536;SDS011;14204;51.262;5.488;2023-07-22T00:40:23;15.15;;;10.27;;
26536;SDS011;14204;51.262;5.488;2023-07-22T00:42:49;12.68;;;10.00;;
26536;SDS011;14204;51.262;5.488;2023-07-22T00:45:14;15.07;;;10.40;;
26536;SDS011;14204;51.262;5.488;2023-07-22T00:47:40;13.38;;;9.70;;
26536;SDS011;14204;51.262;5.488;2023-07-22T00:50:06;13.60;;;9.82;;
26536;SDS011;14204;51.262;5.488;2023-07-22T00:52:33;12.32;;;9.27;;
26536;SDS011;14204;51.262;5.488;2023-07-22T00:54:59;10.90;;;9.23;;
26536;SDS011;14204;51.262;5.488;2023-07-22T00:57:26;15.50;;;9.95;;
26536;SDS011;14204;51.262;5.488;2023-07-22T00:59:51;10.35;;;8.20;;
26536;SDS011;14204;51.262;5.488;2023-07-22T01:02:18;12.30;;;9.88;;
26536;SDS011;14204;51.262;5.488;2023-07-22T01:04:44;13.68;;;9.73;;
26536;SDS011;14204;51.262;5.488;2023-07-22T01:07:10;11.85;;;8.75;;
26536;SDS011;14204;51.262;5.488;2023-07-22T01:09:38;13.10;;;8.32;;
26536;SDS011;14204;51.262;5.488;2023-07-22T01:12:05;13.80;;;8.95;;
26536;SDS011;14204;51.262;5.488;2023-07-22T01:14:38;11.30;;;8.18;;
26536;SDS011;14204;51.262;5.488;2023-07-22T01:17:06;12.35;;;8.63;;
26536;SDS011;14204;51.262;5.488;2023-07-22T01:19:34;10.70;;;8.63;;
26536;SDS011;14204;51.262;5.488;2023-07-22T01:22:02;11.65;;;8.02;;
26536;SDS011;14204;51.262;5.488;2023-07-22T01:24:29;11.75;;;8.95;;
26536;SDS011;14204;51.262;5.488;2023-07-22T01:26:56;12.45;;;8.95;;
26536;SDS011;14204;51.262;5.488;2023-07-22T01:29:22;14.98;;;8.55;;
26536;SDS011;14204;51.262;5.488;2023-07-22T01:31:49;13.98;;;8.82;;
26536;SDS011;14204;51.262;5.488;2023-07-22T01:34:16;10.73;;;8.77;;
26536;SDS011;14204;51.262;5.488;2023-07-22T01:36:42;15.95;;;8.65;;
26536;SDS011;14204;51.262;5.488;2023-07-22T01:39:08;11.68;;;7.65;;
26536;SDS011;14204;51.262;5.488;2023-07-22T01:41:36;13.32;;;9.38;;
26536;SDS011;14204;51.262;5.488;2023-07-22T01:44:02;13.88;;;9.57;;
26536;SDS011;14204;51.262;5.488;2023-07-22T01:46:28;12.40;;;8.93;;
26536;SDS011;14204;51.262;5.488;2023-07-22T01:48:54;15.00;;;10.45;;
26536;SDS011;14204;51.262;5.488;2023-07-22T01:51:20;13.20;;;10.25;;
26536;SDS011;14204;51.262;5.488;2023-07-22T01:53:46;14.77;;;10.18;;
26536;SDS011;14204;51.262;5.488;2023-07-22T01:56:11;17.33;;;10.77;;
26536;SDS011;14204;51.262;5.488;2023-07-22T01:58:38;14.75;;;10.05;;
26536;SDS011;14204;51.262;5.488;2023-07-22T02:01:04;13.18;;;10.57;;
26536;SDS011;14204;51.262;5.488;2023-07-22T02:03:29;12.32;;;9.68;;
26536;SDS011;14204;51.262;5.488;2023-07-22T02:06:02;17.08;;;11.02;;
26536;SDS011;14204;51.262;5.488;2023-07-22T02:08:31;17.88;;;11.40;;
26536;SDS011;14204;51.262;5.488;2023-07-22T02:11:05;16.05;;;11.27;;
26536;SDS011;14204;51.262;5.488;2023-07-22T02:13:31;16.40;;;11.27;;
26536;SDS011;14204;51.262;5.488;2023-07-22T02:15:58;20.02;;;11.60;;
26536;SDS011;14204;51.262;5.488;2023-07-22T02:18:25;15.30;;;10.98;;
26536;SDS011;14204;51.262;5.488;2023-07-22T02:20:51;16.33;;;11.45;;
26536;SDS011;14204;51.262;5.488;2023-07-22T02:23:18;16.35;;;10.85;;
26536;SDS011;14204;51.262;5.488;2023-07-22T02:25:43;17.88;;;11.27;;
26536;SDS011;14204;51.262;5.488;2023-07-22T02:28:09;19.15;;;11.40;;
26536;SDS011;14204;51.262;5.488;2023-07-22T02:30:36;12.52;;;9.85;;
26536;SDS011;14204;51.262;5.488;2023-07-22T02:33:02;16.35;;;10.13;;
26536;SDS011;14204;51.262;5.488;2023-07-22T02:35:30;16.67;;;11.77;;
26536;SDS011;14204;51.262;5.488;2023-07-22T02:37:56;17.10;;;10.75;;
26536;SDS011;14204;51.262;5.488;2023-07-22T02:40:21;14.07;;;10.73;;
26536;SDS011;14204;51.262;5.488;2023-07-22T02:42:47;15.88;;;11.65;;
26536;SDS011;14204;51.262;5.488;2023-07-22T02:45:13;19.33;;;12.18;;
26536;SDS011;14204;51.262;5.488;2023-07-22T02:47:38;16.50;;;12.40;;
26536;SDS011;14204;51.262;5.488;2023-07-22T02:50:05;16.45;;;11.45;;
26536;SDS011;14204;51.262;5.488;2023-07-22T02:52:32;18.35;;;12.15;;
26536;SDS011;14204;51.262;5.488;2023-07-22T02:55:16;15.88;;;11.50;;
26536;SDS011;14204;51.262;5.488;2023-07-22T02:57:46;16.77;;;11.60;;
26536;SDS011;14204;51.262;5.488;2023-07-22T03:00:13;18.75;;;12.30;;
26536;SDS011;14204;51.262;5.488;2023-07-22T03:02:48;17.73;;;10.95;;
26536;SDS011;14204;51.262;5.488;2023-07-22T03:05:15;19.77;;;12.60;;
26536;SDS011;14204;51.262;5.488;2023-07-22T03:07:41;16.63;;;12.18;;
26536;SDS011;14204;51.262;5.488;2023-07-22T03:10:07;16.65;;;11.43;;
26536;SDS011;14204;51.262;5.488;2023-07-22T03:12:34;16.05;;;11.57;;
26536;SDS011;14204;51.262;5.488;2023-07-22T03:15:00;16.13;;;11.40;;
26536;SDS011;14204;51.262;5.488;2023-07-22T03:17:26;17.40;;;11.93;;
26536;SDS011;14204;51.262;5.488;2023-07-22T03:19:52;18.35;;;12.40;;
26536;SDS011;14204;51.262;5.488;2023-07-22T03:22:18;18.23;;;12.15;;
26536;SDS011;14204;51.262;5.488;2023-07-22T03:24:44;18.35;;;11.95;;
26536;SDS011;14204;51.262;5.488;2023-07-22T03:27:10;16.17;;;11.60;;
26536;SDS011;14204;51.262;5.488;2023-07-22T03:29:37;16.17;;;11.82;;
26536;SDS011;14204;51.262;5.488;2023-07-22T03:32:03;17.15;;;11.73;;
26536;SDS011;14204;51.262;5.488;2023-07-22T03:34:30;14.93;;;11.32;;
26536;SDS011;14204;51.262;5.488;2023-07-22T03:36:56;18.70;;;12.80;;
26536;SDS011;14204;51.262;5.488;2023-07-22T03:39:22;17.52;;;12.23;;
26536;SDS011;14204;51.262;5.488;2023-07-22T03:41:48;16.77;;;11.35;;
26536;SDS011;14204;51.262;5.488;2023-07-22T03:44:13;17.17;;;12.43;;
26536;SDS011;14204;51.262;5.488;2023-07-22T03:46:39;18.80;;;11.98;;
26536;SDS011;14204;51.262;5.488;2023-07-22T03:49:05;20.05;;;12.85;;
26536;SDS011;14204;51.262;5.488;2023-07-22T03:51:31;16.67;;;11.57;;
26536;SDS011;14204;51.262;5.488;2023-07-22T03:53:58;16.02;;;11.00;;
26536;SDS011;14204;51.262;5.488;2023-07-22T03:56:23;15.80;;;11.35;;
26536;SDS011;14204;51.262;5.488;2023-07-22T03:58:52;19.88;;;11.98;;
26536;SDS011;14204;51.262;5.488;2023-07-22T04:01:18;19.35;;;11.88;;
26536;SDS011;14204;51.262;5.488;2023-07-22T04:03:44;17.58;;;12.73;;
26536;SDS011;14204;51.262;5.488;2023-07-22T04:06:09;17.40;;;12.25;;
26536;SDS011;14204;51.262;5.488;2023-07-22T04:08:35;21.92;;;12.85;;
26536;SDS011;14204;51.262;5.488;2023-07-22T04:11:01;15.43;;;11.68;;
26536;SDS011;14204;51.262;5.488;2023-07-22T04:13:27;19.65;;;12.00;;
26536;SDS011;14204;51.262;5.488;2023-07-22T04:15:53;15.82;;;11.90;;
26536;SDS011;14204;51.262;5.488;2023-07-22T04:18:19;22.42;;;13.13;;
26536;SDS011;14204;51.262;5.488;2023-07-22T04:20:45;21.17;;;11.77;;
26536;SDS011;14204;51.262;5.488;2023-07-22T04:23:13;15.80;;;11.30;;
26536;SDS011;14204;51.262;5.488;2023-07-22T04:25:39;15.93;;;11.07;;
26536;SDS011;14204;51.262;5.488;2023-07-22T04:28:05;19.90;;;12.20;;
26536;SDS011;14204;51.262;5.488;2023-07-22T04:30:32;17.23;;;12.82;;
26536;SDS011;14204;51.262;5.488;2023-07-22T04:32:58;17.25;;;11.45;;
26536;SDS011;14204;51.262;5.488;2023-07-22T04:35:23;15.18;;;11.35;;
26536;SDS011;14204;51.262;5.488;2023-07-22T04:37:49;14.80;;;11.40;;
26536;SDS011;14204;51.262;5.488;2023-07-22T04:40:15;19.00;;;10.75;;
26536;SDS011;14204;51.262;5.488;2023-07-22T04:42:42;17.75;;;11.73;;
26536;SDS011;14204;51.262;5.488;2023-07-22T04:45:08;19.38;;;11.52;;
26536;SDS011;14204;51.262;5.488;2023-07-22T04:47:35;18.92;;;12.23;;
26536;SDS011;14204;51.262;5.488;2023-07-22T04:50:01;17.42;;;12.65;;
26536;SDS011;14204;51.262;5.488;2023-07-22T04:52:28;18.85;;;12.88;;
26536;SDS011;14204;51.262;5.488;2023-07-22T04:54:54;16.02;;;12.43;;
26536;SDS011;14204;51.262;5.488;2023-07-22T04:57:20;20.95;;;11.75;;
26536;SDS011;14204;51.262;5.488;2023-07-22T04:59:46;17.73;;;11.95;;
26536;SDS011;14204;51.262;5.488;2023-07-22T05:02:12;19.15;;;12.25;;
26536;SDS011;14204;51.262;5.488;2023-07-22T05:04:38;18.13;;;12.25;;
26536;SDS011;14204;51.262;5.488;2023-07-22T05:07:04;18.25;;;11.63;;
26536;SDS011;14204;51.262;5.488;2023-07-22T05:09:29;20.27;;;12.30;;
26536;SDS011;14204;51.262;5.488;2023-07-22T05:11:55;21.73;;;12.52;;
26536;SDS011;14204;51.262;5.488;2023-07-22T05:14:21;21.98;;;14.48;;
26536;SDS011;14204;51.262;5.488;2023-07-22T05:16:47;22.38;;;12.93;;
26536;SDS011;14204;51.262;5.488;2023-07-22T05:19:12;19.00;;;12.95;;
26536;SDS011;14204;51.262;5.488;2023-07-22T05:21:38;25.13;;;12.93;;
26536;SDS011;14204;51.262;5.488;2023-07-22T05:24:03;24.27;;;14.40;;
26536;SDS011;14204;51.262;5.488;2023-07-22T05:26:29;24.35;;;14.43;;
26536;SDS011;14204;51.262;5.488;2023-07-22T05:28:56;22.35;;;12.88;;
26536;SDS011;14204;51.262;5.488;2023-07-22T05:31:22;26.67;;;13.88;;
26536;SDS011;14204;51.262;5.488;2023-07-22T05:33:48;20.52;;;12.20;;
26536;SDS011;14204;51.262;5.488;2023-07-22T05:36:13;18.85;;;12.45;;
26536;SDS011;14204;51.262;5.488;2023-07-22T05:38:39;21.55;;;11.68;;
26536;SDS011;14204;51.262;5.488;2023-07-22T05:41:04;21.20;;;13.40;;
26536;SDS011;14204;51.262;5.488;2023-07-22T05:43:30;24.98;;;12.98;;
26536;SDS011;14204;51.262;5.488;2023-07-22T05:45:56;18.80;;;12.57;;
26536;SDS011;14204;51.262;5.488;2023-07-22T05:48:22;24.08;;;13.65;;
26536;SDS011;14204;51.262;5.488;2023-07-22T05:50:47;19.95;;;12.60;;
26536;SDS011;14204;51.262;5.488;2023-07-22T05:53:13;18.08;;;12.68;;
26536;SDS011;14204;51.262;5.488;2023-07-22T05:55:39;20.98;;;13.73;;
26536;SDS011;14204;51.262;5.488;2023-07-22T05:58:04;25.50;;;13.52;;
26536;SDS011;14204;51.262;5.488;2023-07-22T06:00:31;20.33;;;13.73;;
26536;SDS011;14204;51.262;5.488;2023-07-22T06:03:00;22.63;;;13.38;;
26536;SDS011;14204;51.262;5.488;2023-07-22T06:05:25;24.65;;;12.95;;
26536;SDS011;14204;51.262;5.488;2023-07-22T06:07:51;21.58;;;13.18;;
26536;SDS011;14204;51.262;5.488;2023-07-22T06:10:17;20.08;;;13.15;;
26536;SDS011;14204;51.262;5.488;2023-07-22T06:12:43;23.95;;;15.05;;
26536;SDS011;14204;51.262;5.488;2023-07-22T06:15:08;20.83;;;13.05;;
26536;SDS011;14204;51.262;5.488;2023-07-22T06:17:34;21.50;;;13.27;;
26536;SDS011;14204;51.262;5.488;2023-07-22T06:20:00;21.33;;;12.73;;
26536;SDS011;14204;51.262;5.488;2023-07-22T06:22:26;21.42;;;14.48;;
26536;SDS011;14204;51.262;5.488;2023-07-22T06:24:52;23.55;;;13.88;;
26536;SDS011;14204;51.262;5.488;2023-07-22T06:27:17;22.58;;;12.65;;
26536;SDS011;14204;51.262;5.488;2023-07-22T06:29:43;23.23;;;13.70;;
26536;SDS011;14204;51.262;5.488;2023-07-22T06:32:08;26.60;;;13.38;;
26536;SDS011;14204;51.262;5.488;2023-07-22T06:34:34;23.90;;;12.63;;
26536;SDS011;14204;51.262;5.488;2023-07-22T06:37:00;26.17;;;14.50;;
26536;SDS011;14204;51.262;5.488;2023-07-22T06:39:25;25.40;;;13.55;;
26536;SDS011;14204;51.262;5.488;2023-07-22T06:41:51;25.10;;;14.05;;
26536;SDS011;14204;51.262;5.488;2023-07-22T06:44:16;22.40;;;13.35;;
26536;SDS011;14204;51.262;5.488;2023-07-22T06:46:42;27.60;;;13.77;;
26536;SDS011;14204;51.262;5.488;2023-07-22T06:49:09;23.08;;;12.75;;
26536;SDS011;14204;51.262;5.488;2023-07-22T06:51:35;24.42;;;14.23;;
26536;SDS011;14204;51.262;5.488;2023-07-22T06:54:02;24.65;;;13.98;;
26536;SDS011;14204;51.262;5.488;2023-07-22T06:56:28;24.95;;;13.18;;
26536;SDS011;14204;51.262;5.488;2023-07-22T06:58:53;24.00;;;13.30;;
26536;SDS011;14204;51.262;5.488;2023-07-22T07:01:19;24.17;;;13.88;;
26536;SDS011;14204;51.262;5.488;2023-07-22T07:03:45;23.50;;;13.48;;
26536;SDS011;14204;51.262;5.488;2023-07-22T07:06:11;22.77;;;14.35;;
26536;SDS011;14204;51.262;5.488;2023-07-22T07:08:37;24.77;;;14.05;;
26536;SDS011;14204;51.262;5.488;2023-07-22T07:11:02;23.35;;;12.32;;
26536;SDS011;14204;51.262;5.488;2023-07-22T07:13:28;27.02;;;13.98;;
26536;SDS011;14204;51.262;5.488;2023-07-22T07:15:53;23.08;;;13.52;;
26536;SDS011;14204;51.262;5.488;2023-07-22T07:18:20;23.73;;;12.75;;
26536;SDS011;14204;51.262;5.488;2023-07-22T07:20:45;24.70;;;13.18;;
26536;SDS011;14204;51.262;5.488;2023-07-22T07:23:12;20.15;;;13.35;;
26536;SDS011;14204;51.262;5.488;2023-07-22T07:25:38;27.45;;;13.05;;
26536;SDS011;14204;51.262;5.488;2023-07-22T07:28:04;21.90;;;13.70;;
26536;SDS011;14204;51.262;5.488;2023-07-22T07:30:30;21.75;;;11.93;;
26536;SDS011;14204;51.262;5.488;2023-07-22T07:32:56;20.85;;;12.43;;
26536;SDS011;14204;51.262;5.488;2023-07-22T07:35:22;26.40;;;12.45;;
26536;SDS011;14204;51.262;5.488;2023-07-22T07:37:47;22.63;;;13.20;;
26536;SDS011;14204;51.262;5.488;2023-07-22T07:40:13;26.48;;;13.18;;
26536;SDS011;14204;51.262;5.488;2023-07-22T07:42:38;25.90;;;12.82;;
26536;SDS011;14204;51.262;5.488;2023-07-22T07:45:04;20.40;;;11.50;;
26536;SDS011;14204;51.262;5.488;2023-07-22T07:47:30;19.67;;;12.77;;
26536;SDS011;14204;51.262;5.488;2023-07-22T07:49:56;26.00;;;12.98;;
26536;SDS011;14204;51.262;5.488;2023-07-22T07:52:22;25.63;;;11.65;;
26536;SDS011;14204;51.262;5.488;2023-07-22T07:54:47;21.45;;;11.27;;
26536;SDS011;14204;51.262;5.488;2023-07-22T07:57:13;21.33;;;12.07;;
26536;SDS011;14204;51.262;5.488;2023-07-22T07:59:39;21.02;;;12.07;;
26536;SDS011;14204;51.262;5.488;2023-07-22T08:02:05;20.40;;;12.00;;
26536;SDS011;14204;51.262;5.488;2023-07-22T08:04:34;16.98;;;10.75;;
26536;SDS011;14204;51.262;5.488;2023-07-22T08:07:00;18.30;;;9.57;;
26536;SDS011;14204;51.262;5.488;2023-07-22T08:09:25;17.35;;;10.60;;
26536;SDS011;14204;51.262;5.488;2023-07-22T08:11:51;23.25;;;11.32;;
26536;SDS011;14204;51.262;5.488;2023-07-22T08:14:16;21.88;;;10.30;;
26536;SDS011;14204;51.262;5.488;2023-07-22T08:16:43;17.77;;;10.50;;
26536;SDS011;14204;51.262;5.488;2023-07-22T08:19:09;23.67;;;11.70;;
26536;SDS011;14204;51.262;5.488;2023-07-22T08:21:35;18.05;;;10.20;;
26536;SDS011;14204;51.262;5.488;2023-07-22T08:24:01;18.10;;;10.38;;
26536;SDS011;14204;51.262;5.488;2023-07-22T08:26:27;21.13;;;10.77;;
26536;SDS011;14204;51.262;5.488;2023-07-22T08:28:53;18.05;;;8.85;;
26536;SDS011;14204;51.262;5.488;2023-07-22T08:31:19;19.17;;;9.70;;
26536;SDS011;14204;51.262;5.488;2023-07-22T08:33:44;16.88;;;8.95;;
26536;SDS011;14204;51.262;5.488;2023-07-22T08:36:10;17.13;;;9.38;;
26536;SDS011;14204;51.262;5.488;2023-07-22T08:38:36;21.10;;;9.18;;
26536;SDS011;14204;51.262;5.488;2023-07-22T08:41:01;20.23;;;9.65;;
26536;SDS011;14204;51.262;5.488;2023-07-22T08:43:27;19.38;;;9.20;;
26536;SDS011;14204;51.262;5.488;2023-07-22T08:45:54;21.65;;;9.00;;
26536;SDS011;14204;51.262;5.488;2023-07-22T08:48:21;16.38;;;9.20;;
26536;SDS011;14204;51.262;5.488;2023-07-22T08:51:04;15.50;;;8.65;;
26536;SDS011;14204;51.262;5.488;2023-07-22T08:53:35;18.02;;;8.90;;
26536;SDS011;14204;51.262;5.488;2023-07-22T08:56:02;15.07;;;9.18;;
26536;SDS011;14204;51.262;5.488;2023-07-22T08:58:28;15.00;;;8.80;;
26536;SDS011;14204;51.262;5.488;2023-07-22T09:00:54;15.50;;;8.10;;
26536;SDS011;14204;51.262;5.488;2023-07-22T09:03:21;13.20;;;8.20;;
26536;SDS011;14204;51.262;5.488;2023-07-22T09:05:47;16.42;;;8.02;;
26536;SDS011;14204;51.262;5.488;2023-07-22T09:08:13;11.80;;;8.35;;
26536;SDS011;14204;51.262;5.488;2023-07-22T09:10:39;15.52;;;7.47;;
26536;SDS011;14204;51.262;5.488;2023-07-22T09:13:04;17.55;;;7.78;;
26536;SDS011;14204;51.262;5.488;2023-07-22T09:15:31;18.33;;;7.63;;
26536;SDS011;14204;51.262;5.488;2023-07-22T09:18:01;15.57;;;8.73;;
26536;SDS011;14204;51.262;5.488;2023-07-22T09:20:28;10.85;;;7.38;;
26536;SDS011;14204;51.262;5.488;2023-07-22T09:22:55;12.88;;;7.32;;
26536;SDS011;14204;51.262;5.488;2023-07-22T09:27:51;11.80;;;6.43;;
26536;SDS011;14204;51.262;5.488;2023-07-22T09:30:25;9.98;;;6.13;;
26536;SDS011;14204;51.262;5.488;2023-07-22T09:32:54;10.15;;;6.18;;
26536;SDS011;14204;51.262;5.488;2023-07-22T09:35:21;12.63;;;5.95;;
26536;SDS011;14204;51.262;5.488;2023-07-22T09:37:47;10.35;;;5.50;;
26536;SDS011;14204;51.262;5.488;2023-07-22T09:40:20;9.32;;;5.50;;
26536;SDS011;14204;51.262;5.488;2023-07-22T09:42:48;9.52;;;5.18;;
26536;SDS011;14204;51.262;5.488;2023-07-22T09:45:18;11.95;;;5.78;;
26536;SDS011;14204;51.262;5.488;2023-07-22T09:47:45;9.00;;;5.53;;
26536;SDS011;14204;51.262;5.488;2023-07-22T09:50:15;10.73;;;5.15;;
26536;SDS011;14204;51.262;5.488;2023-07-22T09:52:47;11.73;;;5.43;;
26536;SDS011;14204;51.262;5.488;2023-07-22T09:55:15;9.80;;;5.00;;
26536;SDS011;14204;51.262;5.488;2023-07-22T09:58:01;8.30;;;4.68;;
26536;SDS011;14204;51.262;5.488;2023-07-22T10:00:28;8.43;;;4.35;;
26536;SDS011;14204;51.262;5.488;2023-07-22T10:02:56;12.15;;;4.72;;
26536;SDS011;14204;51.262;5.488;2023-07-22T10:05:22;7.93;;;4.05;;
26536;SDS011;14204;51.262;5.488;2023-07-22T10:07:51;9.55;;;3.63;;
26536;SDS011;14204;51.262;5.488;2023-07-22T10:10:19;7.70;;;4.00;;
26536;SDS011;14204;51.262;5.488;2023-07-22T10:12:46;5.82;;;3.53;;
26536;SDS011;14204;51.262;5.488;2023-07-22T10:15:13;5.90;;;3.53;;
26536;SDS011;14204;51.262;5.488;2023-07-22T10:17:40;7.47;;;3.58;;
26536;SDS011;14204;51.262;5.488;2023-07-22T10:20:10;8.18;;;3.60;;
26536;SDS011;14204;51.262;5.488;2023-07-22T10:22:40;7.38;;;3.78;;
26536;SDS011;14204;51.262;5.488;2023-07-22T10:25:14;6.22;;;3.22;;
26536;SDS011;14204;51.262;5.488;2023-07-22T10:27:42;4.30;;;3.58;;
26536;SDS011;14204;51.262;5.488;2023-07-22T10:30:08;4.40;;;2.78;;
26536;SDS011;14204;51.262;5.488;2023-07-22T10:32:36;5.63;;;3.33;;
26536;SDS011;14204;51.262;5.488;2023-07-22T10:35:16;4.05;;;3.10;;
26536;SDS011;14204;51.262;5.488;2023-07-22T10:37:47;5.85;;;2.90;;
26536;SDS011;14204;51.262;5.488;2023-07-22T10:40:16;6.47;;;2.78;;
26536;SDS011;14204;51.262;5.488;2023-07-22T10:42:52;4.13;;;3.08;;
26536;SDS011;14204;51.262;5.488;2023-07-22T10:45:26;5.50;;;2.50;;
26536;SDS011;14204;51.262;5.488;2023-07-22T10:48:07;8.13;;;3.10;;
26536;SDS011;14204;51.262;5.488;2023-07-22T10:50:46;4.75;;;2.85;;
26536;SDS011;14204;51.262;5.488;2023-07-22T10:59:00;8.90;;;2.58;;
26536;SDS011;14204;51.262;5.488;2023-07-22T11:11:53;4.40;;;2.50;;
26536;SDS011;14204;51.262;5.488;2023-07-22T11:14:22;4.47;;;2.30;;
26536;SDS011;14204;51.262;5.488;2023-07-22T11:16:50;2.45;;;1.75;;
26536;SDS011;14204;51.262;5.488;2023-07-22T11:19:18;4.55;;;2.33;;
26536;SDS011;14204;51.262;5.488;2023-07-22T11:21:46;5.57;;;1.92;;
26536;SDS011;14204;51.262;5.488;2023-07-22T11:24:13;4.32;;;2.03;;
26536;SDS011;14204;51.262;5.488;2023-07-22T11:26:40;4.15;;;2.58;;
26536;SDS011;14204;51.262;5.488;2023-07-22T11:29:06;5.13;;;2.13;;
26536;SDS011;14204;51.262;5.488;2023-07-22T11:31:35;3.83;;;2.50;;
26536;SDS011;14204;51.262;5.488;2023-07-22T11:34:02;2.75;;;2.00;;
26536;SDS011;14204;51.262;5.488;2023-07-22T11:36:28;2.85;;;1.83;;
26536;SDS011;14204;51.262;5.488;2023-07-22T11:39:00;3.65;;;2.10;;
26536;SDS011;14204;51.262;5.488;2023-07-22T11:41:30;5.68;;;2.88;;
26536;SDS011;14204;51.262;5.488;2023-07-22T11:43:58;3.80;;;1.88;;
26536;SDS011;14204;51.262;5.488;2023-07-22T11:46:25;6.35;;;2.28;;
26536;SDS011;14204;51.262;5.488;2023-07-22T11:48:54;4.32;;;2.25;;
26536;SDS011;14204;51.262;5.488;2023-07-22T11:51:24;3.35;;;2.30;;
26536;SDS011;14204;51.262;5.488;2023-07-22T11:53:50;5.95;;;2.88;;
26536;SDS011;14204;51.262;5.488;2023-07-22T11:56:21;3.15;;;2.00;;
26536;SDS011;14204;51.262;5.488;2023-07-22T11:58:52;3.38;;;2.72;;
26536;SDS011;14204;51.262;5.488;2023-07-22T12:01:19;2.85;;;2.55;;
26536;SDS011;14204;51.262;5.488;2023-07-22T12:03:45;3.80;;;2.50;;
26536;SDS011;14204;51.262;5.488;2023-07-22T12:06:11;3.33;;;2.60;;
26536;SDS011;14204;51.262;5.488;2023-07-22T12:08:47;3.13;;;2.25;;
26536;SDS011;14204;51.262;5.488;2023-07-22T12:11:23;3.70;;;2.55;;
26536;SDS011;14204;51.262;5.488;2023-07-22T12:14:04;6.70;;;3.13;;
26536;SDS011;14204;51.262;5.488;2023-07-22T12:16:34;2.65;;;2.45;;
26536;SDS011;14204;51.262;5.488;2023-07-22T12:19:01;4.65;;;2.08;;
26536;SDS011;14204;51.262;5.488;2023-07-22T12:21:28;5.22;;;2.58;;
26536;SDS011;14204;51.262;5.488;2023-07-22T12:23:53;3.60;;;2.67;;
26536;SDS011;14204;51.262;5.488;2023-07-22T12:26:19;6.53;;;2.85;;
26536;SDS011;14204;51.262;5.488;2023-07-22T12:28:45;3.08;;;2.38;;
26536;SDS011;14204;51.262;5.488;2023-07-22T12:31:11;4.15;;;2.45;;
26536;SDS011;14204;51.262;5.488;2023-07-22T12:33:37;3.60;;;2.45;;
26536;SDS011;14204;51.262;5.488;2023-07-22T12:36:02;4.78;;;2.53;;
26536;SDS011;14204;51.262;5.488;2023-07-22T12:38:28;4.50;;;2.40;;
26536;SDS011;14204;51.262;5.488;2023-07-22T12:40:54;4.35;;;2.25;;
26536;SDS011;14204;51.262;5.488;2023-07-22T12:43:20;4.00;;;2.25;;
26536;SDS011;14204;51.262;5.488;2023-07-22T12:45:45;4.38;;;2.20;;
26536;SDS011;14204;51.262;5.488;2023-07-22T12:48:11;11.88;;;2.40;;
26536;SDS011;14204;51.262;5.488;2023-07-22T12:50:37;5.15;;;1.85;;
26536;SDS011;14204;51.262;5.488;2023-07-22T12:53:02;3.13;;;2.15;;
26536;SDS011;14204;51.262;5.488;2023-07-22T12:55:28;2.40;;;2.13;;
26536;SDS011;14204;51.262;5.488;2023-07-22T12:57:54;4.95;;;2.60;;
26536;SDS011;14204;51.262;5.488;2023-07-22T13:00:20;4.45;;;2.42;;
26536;SDS011;14204;51.262;5.488;2023-07-22T13:02:46;7.00;;;2.38;;
26536;SDS011;14204;51.262;5.488;2023-07-22T13:05:12;2.47;;;2.28;;
26536;SDS011;14204;51.262;5.488;2023-07-22T13:07:38;4.38;;;2.20;;
26536;SDS011;14204;51.262;5.488;2023-07-22T13:10:04;3.50;;;2.00;;
26536;SDS011;14204;51.262;5.488;2023-07-22T13:12:34;4.20;;;2.22;;
26536;SDS011;14204;51.262;5.488;2023-07-22T13:15:00;4.22;;;2.13;;
26536;SDS011;14204;51.262;5.488;2023-07-22T13:17:26;4.40;;;2.15;;
26536;SDS011;14204;51.262;5.488;2023-07-22T13:19:51;3.95;;;2.10;;
26536;SDS011;14204;51.262;5.488;2023-07-22T13:22:17;3.45;;;2.15;;
26536;SDS011;14204;51.262;5.488;2023-07-22T13:24:42;3.92;;;1.98;;
26536;SDS011;14204;51.262;5.488;2023-07-22T13:27:08;2.22;;;2.00;;
26536;SDS011;14204;51.262;5.488;2023-07-22T13:29:34;5.03;;;1.60;;
26536;SDS011;14204;51.262;5.488;2023-07-22T13:32:00;2.08;;;1.88;;
26536;SDS011;14204;51.262;5.488;2023-07-22T13:34:25;2.80;;;1.60;;
26536;SDS011;14204;51.262;5.488;2023-07-22T13:36:51;2.13;;;1.60;;
26536;SDS011;14204;51.262;5.488;2023-07-22T13:39:17;2.20;;;1.67;;
26536;SDS011;14204;51.262;5.488;2023-07-22T13:41:43;3.22;;;1.80;;
26536;SDS011;14204;51.262;5.488;2023-07-22T13:44:09;5.22;;;1.83;;
26536;SDS011;14204;51.262;5.488;2023-07-22T13:46:35;1.95;;;1.77;;
26536;SDS011;14204;51.262;5.488;2023-07-22T13:49:00;2.33;;;1.90;;
26536;SDS011;14204;51.262;5.488;2023-07-22T13:51:26;2.10;;;1.90;;
26536;SDS011;14204;51.262;5.488;2023-07-22T13:53:52;4.20;;;2.15;;
26536;SDS011;14204;51.262;5.488;2023-07-22T13:56:19;4.30;;;1.80;;
26536;SDS011;14204;51.262;5.488;2023-07-22T13:58:45;3.53;;;1.73;;
26536;SDS011;14204;51.262;5.488;2023-07-22T14:01:12;3.28;;;1.85;;
26536;SDS011;14204;51.262;5.488;2023-07-22T14:03:38;4.18;;;2.63;;
26536;SDS011;14204;51.262;5.488;2023-07-22T14:06:04;2.60;;;2.15;;
26536;SDS011;14204;51.262;5.488;2023-07-22T14:08:29;2.95;;;2.20;;
26536;SDS011;14204;51.262;5.488;2023-07-22T14:10:55;2.75;;;2.38;;
26536;SDS011;14204;51.262;5.488;2023-07-22T14:13:21;4.07;;;2.33;;
26536;SDS011;14204;51.262;5.488;2023-07-22T14:15:47;5.38;;;2.50;;
26536;SDS011;14204;51.262;5.488;2023-07-22T14:18:12;2.78;;;2.25;;
26536;SDS011;14204;51.262;5.488;2023-07-22T14:20:42;6.53;;;2.53;;
26536;SDS011;14204;51.262;5.488;2023-07-22T14:23:11;4.20;;;2.40;;
26536;SDS011;14204;51.262;5.488;2023-07-22T14:25:37;2.80;;;2.08;;
26536;SDS011;14204;51.262;5.488;2023-07-22T14:28:02;2.97;;;2.70;;
26536;SDS011;14204;51.262;5.488;2023-07-22T14:30:28;5.22;;;2.67;;
26536;SDS011;14204;51.262;5.488;2023-07-22T14:32:54;3.90;;;2.25;;
26536;SDS011;14204;51.262;5.488;2023-07-22T14:35:20;6.45;;;2.85;;
26536;SDS011;14204;51.262;5.488;2023-07-22T14:37:46;3.17;;;2.58;;
26536;SDS011;14204;51.262;5.488;2023-07-22T14:40:12;3.47;;;2.50;;
26536;SDS011;14204;51.262;5.488;2023-07-22T14:42:38;5.13;;;2.53;;
26536;SDS011;14204;51.262;5.488;2023-07-22T14:45:04;3.10;;;2.80;;
26536;SDS011;14204;51.262;5.488;2023-07-22T14:47:31;4.60;;;2.35;;
26536;SDS011;14204;51.262;5.488;2023-07-22T14:49:56;3.95;;;2.30;;